createdAt,value
2022-11-16T00:03:26.878Z,95.18
2022-11-16T00:08:34.904Z,95.74
2022-11-16T00:13:39.057Z,95.68
2022-11-16T00:18:42.302Z,95.61
2022-11-16T00:23:45.427Z,95.60
2022-11-16T00:28:48.477Z,95.95
2022-11-16T00:33:51.898Z,96.04
2022-11-16T00:38:54.591Z,96.07
2022-11-16T00:43:57.243Z,95.83
2022-11-16T00:49:02.381Z,96.02
2022-11-16T00:54:06.967Z,95.91
2022-11-16T00:59:09.623Z,95.79
2022-11-16T01:04:12.530Z,95.80
2022-11-16T01:09:15.267Z,95.92
2022-11-16T01:14:17.948Z,95.95
2022-11-16T01:19:20.613Z,96.25
2022-11-16T01:24:24.508Z,96.13
2022-11-16T01:29:30.062Z,96.17
2022-11-16T01:34:32.869Z,96.04
2022-11-16T01:39:35.563Z,95.94
2022-11-16T01:44:39.144Z,96.13
2022-11-16T01:49:48.565Z,95.76
2022-11-16T01:54:53.854Z,95.88
2022-11-16T01:59:59.223Z,95.86
2022-11-16T02:05:02.985Z,95.79
2022-11-16T02:10:14.259Z,95.43
2022-11-16T02:15:21.113Z,95.14
2022-11-16T02:20:36.924Z,94.84
2022-11-16T02:25:44.471Z,94.67
2022-11-16T02:30:53.384Z,94.33
2022-11-16T02:36:00.219Z,94.39
2022-11-16T02:41:11.200Z,94.47
2022-11-16T02:46:21.513Z,93.62
2022-11-16T02:51:27.417Z,92.02
2022-11-16T02:56:30.597Z,91.54
2022-11-16T03:01:40.031Z,91.14
2022-11-16T03:06:46.906Z,90.03
2022-11-16T03:11:57.726Z,89.60
2022-11-16T03:17:02.182Z,88.72
2022-11-16T03:22:12.516Z,88.79
2022-11-16T03:27:26.800Z,88.91
2022-11-16T03:32:51.658Z,88.79
2022-11-16T03:37:58.453Z,88.29
2022-11-16T03:43:03.508Z,88.52
2022-11-16T03:48:06.872Z,88.68
2022-11-16T03:53:10.172Z,88.36
2022-11-16T03:58:12.721Z,87.90
2022-11-16T04:03:15.387Z,87.41
2022-11-16T04:08:21.211Z,86.91
2022-11-16T04:13:32.465Z,86.51
2022-11-16T04:18:37.977Z,85.90
2022-11-16T04:23:43.865Z,84.54
2022-11-16T04:28:46.524Z,85.30
2022-11-16T04:33:55.072Z,85.96
2022-11-16T04:38:57.826Z,86.66
2022-11-16T04:44:00.555Z,86.85
2022-11-16T04:49:03.128Z,86.77
2022-11-16T04:54:05.730Z,86.65
2022-11-16T04:59:08.468Z,86.37
2022-11-16T05:04:11.474Z,86.06
2022-11-16T05:09:14.477Z,86.05
2022-11-16T05:14:17.267Z,85.46
2022-11-16T05:19:22.751Z,86.11
2022-11-16T05:24:28.254Z,85.11
2022-11-16T05:29:33.357Z,85.32
2022-11-16T05:34:35.941Z,86.38
2022-11-16T05:39:38.656Z,87.03
2022-11-16T05:44:43.332Z,87.39
2022-11-16T05:49:48.107Z,87.92
2022-11-16T05:54:50.665Z,88.42
2022-11-16T05:59:53.185Z,88.62
2022-11-16T06:04:55.732Z,88.71
2022-11-16T06:09:58.387Z,89.39
2022-11-16T06:15:00.958Z,89.94
2022-11-16T06:20:03.804Z,90.34
2022-11-16T06:25:06.766Z,90.16
2022-11-16T06:30:09.533Z,89.70
2022-11-16T06:35:12.122Z,89.50
2022-11-16T06:40:15.145Z,89.59
2022-11-16T06:45:18.063Z,89.96
2022-11-16T06:50:20.728Z,90.15
2022-11-16T06:55:23.358Z,89.94
2022-11-16T07:00:25.896Z,90.18
2022-11-16T07:05:28.473Z,90.10
2022-11-16T07:10:31.561Z,90.06
2022-11-16T07:15:34.211Z,89.31
2022-11-16T07:20:37.433Z,88.99
2022-11-16T07:25:40.809Z,88.21
2022-11-16T07:30:44.748Z,88.00
2022-11-16T07:35:47.567Z,88.18
2022-11-16T07:40:50.123Z,87.84
2022-11-16T07:45:53.374Z,86.91
2022-11-16T07:51:00.951Z,86.32
2022-11-16T07:56:04.049Z,86.03
2022-11-16T08:01:09.508Z,85.59
2022-11-16T08:06:16.283Z,84.41
2022-11-16T08:11:28.210Z,83.74
2022-11-16T08:16:33.101Z,83.74
2022-11-16T08:21:35.802Z,83.67
2022-11-16T08:26:38.605Z,83.54
2022-11-16T08:31:44.440Z,83.21
2022-11-16T08:36:47.513Z,82.91
2022-11-16T08:41:50.883Z,82.57
2022-11-16T08:46:53.415Z,83.00
2022-11-16T08:51:56.309Z,82.31
2022-11-16T08:56:59.115Z,82.30
2022-11-16T09:02:01.827Z,82.05
2022-11-16T09:07:04.603Z,80.94
2022-11-16T09:12:07.287Z,80.65
2022-11-16T09:17:09.820Z,80.49
2022-11-16T09:22:12.369Z,80.70
2022-11-16T09:27:15.350Z,80.78
2022-11-16T09:32:17.939Z,80.86
2022-11-16T09:37:20.520Z,80.80
2022-11-16T09:42:30.917Z,80.18
2022-11-16T09:47:40.240Z,80.23
2022-11-16T09:52:51.410Z,80.35
2022-11-16T09:57:58.217Z,80.11
2022-11-16T10:03:06.552Z,79.92
2022-11-16T10:08:18.504Z,79.70
2022-11-16T10:13:23.578Z,79.44
2022-11-16T10:18:29.011Z,78.63
2022-11-16T10:23:38.625Z,78.57
2022-11-16T10:28:43.112Z,78.77
2022-11-16T10:33:48.732Z,78.10
2022-11-16T10:38:51.441Z,78.08
2022-11-16T10:43:57.994Z,77.62
2022-11-16T10:49:11.406Z,77.55
2022-11-16T10:54:16.603Z,76.23
2022-11-16T10:59:19.703Z,76.92
2022-11-16T11:04:25.790Z,76.90
2022-11-16T11:09:30.471Z,76.98
2022-11-16T11:14:35.695Z,76.65
2022-11-16T11:19:38.362Z,77.26
2022-11-16T11:24:48.307Z,76.93
2022-11-16T11:29:54.256Z,77.03
2022-11-16T11:34:59.972Z,77.74
2022-11-16T11:40:05.473Z,77.79
2022-11-16T11:45:16.226Z,78.03
2022-11-16T11:50:21.822Z,78.24
2022-11-16T11:55:24.766Z,77.94
2022-11-16T12:00:31.053Z,78.16
2022-11-16T12:05:36.638Z,78.62
2022-11-16T12:10:41.197Z,78.81
2022-11-16T12:15:53.167Z,78.31
2022-11-16T12:20:59.648Z,77.97
2022-11-16T12:26:06.150Z,78.40
2022-11-16T12:31:22.811Z,78.60
2022-11-16T12:36:35.552Z,78.48
2022-11-16T12:41:45.849Z,78.46
2022-11-16T12:46:51.290Z,78.22
2022-11-16T12:51:57.775Z,78.27
2022-11-16T12:57:06.183Z,78.47
2022-11-16T13:02:14.743Z,78.64
2022-11-16T13:07:24.494Z,78.59
2022-11-16T13:12:30.394Z,78.32
2022-11-16T13:17:38.878Z,78.80
2022-11-16T13:22:51.547Z,78.70
2022-11-16T13:28:04.094Z,78.73
2022-11-16T13:33:08.597Z,78.63
2022-11-16T13:38:14.811Z,78.08
2022-11-16T13:43:18.261Z,78.10
2022-11-16T13:48:24.765Z,78.21
2022-11-16T13:58:56.994Z,78.55
2022-11-16T14:04:22.695Z,78.62
2022-11-16T14:09:33.156Z,78.67
2022-11-16T14:15:03.402Z,78.74
2022-11-16T14:20:12.613Z,78.65
2022-11-16T14:25:25.930Z,78.50
2022-11-16T14:30:36.105Z,77.78
2022-11-16T14:35:40.073Z,78.50
2022-11-16T14:40:46.559Z,78.22
2022-11-16T14:45:58.842Z,78.58
2022-11-16T14:51:08.576Z,78.99
2022-11-16T14:56:14.386Z,78.90
2022-11-16T15:01:19.046Z,77.99
2022-11-16T15:06:22.700Z,77.33
2022-11-16T15:11:48.813Z,77.43
2022-11-16T15:16:54.250Z,78.04
2022-11-16T15:21:59.578Z,78.05
2022-11-16T15:27:12.140Z,77.47
2022-11-16T15:32:17.704Z,77.14
2022-11-16T15:37:26.092Z,77.41
2022-11-16T15:42:29.329Z,77.01
2022-11-16T15:47:32.014Z,76.59
2022-11-16T15:52:43.697Z,76.68
2022-11-16T15:57:46.716Z,76.68
2022-11-16T16:02:51.400Z,76.60
2022-11-16T16:07:53.962Z,76.84
2022-11-16T16:12:59.721Z,76.42
2022-11-16T16:18:10.987Z,76.15
2022-11-16T16:23:16.754Z,76.02
2022-11-16T16:28:19.443Z,76.51
2022-11-16T16:33:25.555Z,76.01
2022-11-16T16:38:28.648Z,76.58
2022-11-16T16:43:32.479Z,76.85
2022-11-16T16:48:43.283Z,76.82
2022-11-16T16:53:47.160Z,76.97
2022-11-16T16:58:49.731Z,77.11
2022-11-16T17:03:52.557Z,77.05
2022-11-16T17:08:55.695Z,77.22
2022-11-16T17:14:00.674Z,77.24
2022-11-16T17:19:04.652Z,77.50
2022-11-16T17:24:07.293Z,77.58
2022-11-16T17:29:10.045Z,77.62
2022-11-16T17:34:14.378Z,77.84
2022-11-16T17:39:17.299Z,78.10
2022-11-16T17:44:21.813Z,78.23
2022-11-16T17:49:24.652Z,78.37
2022-11-16T17:54:27.204Z,78.38
2022-11-16T17:59:30.223Z,78.21
2022-11-16T18:04:32.791Z,78.49
2022-11-16T18:09:35.353Z,78.41
2022-11-16T18:14:37.922Z,78.57
2022-11-16T18:19:40.455Z,78.54
2022-11-16T18:24:43.435Z,78.70
2022-11-16T18:29:45.941Z,78.44
2022-11-16T18:34:48.550Z,78.22
2022-11-16T18:39:51.091Z,78.54
2022-11-16T18:44:53.898Z,78.35
2022-11-16T18:49:56.427Z,78.04
2022-11-16T18:55:31.459Z,78.01
2022-11-16T19:00:34.110Z,78.11
2022-11-16T19:05:36.791Z,77.86
2022-11-16T19:10:39.629Z,77.43
2022-11-16T19:15:42.272Z,77.50
2022-11-16T19:20:44.874Z,77.60
2022-11-16T19:25:47.695Z,77.46
2022-11-16T19:30:51.224Z,77.74
2022-11-16T19:35:53.775Z,77.46
2022-11-16T19:40:58.929Z,77.47
2022-11-16T19:46:03.816Z,77.25
2022-11-16T19:51:11.431Z,77.42
2022-11-16T19:56:16.585Z,77.17
2022-11-16T20:01:27.859Z,76.99
2022-11-16T20:06:33.918Z,76.34
2022-11-16T20:11:38.225Z,76.77
2022-11-16T20:16:42.775Z,76.56
2022-11-16T20:21:45.358Z,76.63
2022-11-16T20:26:49.188Z,76.65
2022-11-16T20:31:51.747Z,76.76
2022-11-16T20:36:54.317Z,76.54
2022-11-16T20:41:56.897Z,76.35
2022-11-16T20:46:59.499Z,76.63
2022-11-16T20:52:02.409Z,76.43
2022-11-16T20:57:05.007Z,76.31
2022-11-16T21:02:10.502Z,76.29
2022-11-16T21:07:14.019Z,76.23
2022-11-16T21:12:19.534Z,76.01
2022-11-16T21:17:22.069Z,75.57
2022-11-16T21:22:27.081Z,75.90
2022-11-16T21:27:33.643Z,76.13
2022-11-16T21:32:36.192Z,75.83
2022-11-16T21:37:38.729Z,75.41
2022-11-16T21:42:41.333Z,75.51
2022-11-16T21:47:43.980Z,75.13
2022-11-16T21:52:46.524Z,75.31
2022-11-16T21:57:49.102Z,75.35
2022-11-16T22:02:51.697Z,75.03
2022-11-16T22:07:54.334Z,75.25
2022-11-16T22:12:56.899Z,75.04
2022-11-16T22:17:59.418Z,75.12
2022-11-16T22:23:01.969Z,75.39
2022-11-16T22:28:21.139Z,75.54
2022-11-16T22:33:24.057Z,75.67
2022-11-16T22:38:26.770Z,75.28
2022-11-16T22:43:31.023Z,75.51
2022-11-16T22:48:39.070Z,75.81
2022-11-16T22:53:41.653Z,75.57
2022-11-16T22:58:44.214Z,75.70
2022-11-16T23:03:47.746Z,75.73
2022-11-16T23:08:50.627Z,75.58
2022-11-16T23:13:57.096Z,75.51
2022-11-16T23:19:00.141Z,75.32
2022-11-16T23:24:06.277Z,75.43
2022-11-16T23:29:10.465Z,75.39
2022-11-16T23:34:13.010Z,75.28
2022-11-16T23:39:15.600Z,75.10
2022-11-16T23:44:18.352Z,75.04
2022-11-16T23:49:20.899Z,75.20
2022-11-16T23:54:23.578Z,74.95
2022-11-16T23:59:26.099Z,74.90
